Time;durP1;ratioP1;P1;durP2;ratioP2;P2;SDS_P1;SDS_P2;PMS_P1;PMS_P2;Temp;Humidity;BMP_temperature;BMP_pressure;BME280_temperature;BME280_humidity;BME280_pressure;Samples;Min_cycle;Max_cycle;Signal;HPM_P1;HPM_P2
2023/04/24 00:01:17;;;;;;;;;;;;;;;22.33;52.06;96634.84;611254;231;68545;-60
2023/04/24 00:03:44;;;;;;;;;;;;;;;22.34;51.75;96635.64;610960;231;68494;-60
2023/04/24 00:06:12;;;;;;;;;;;;;;;22.32;51.43;96627.91;611082;230;64997;-60
2023/04/24 00:08:40;;;;;;;;;;;;;;;22.31;51.95;96628.98;610986;230;68547;-60
2023/04/24 00:11:07;;;;;;;;;;;;;;;22.31;51.36;96628.98;611045;231;66386;-60
2023/04/24 00:13:35;;;;;;;;;;;;;;;22.32;52.77;96629.80;611051;230;64998;-60
2023/04/24 00:16:02;;;;;;;;;;;;;;;22.29;50.71;96623.14;611382;231;68479;-60
2023/04/24 00:18:30;;;;;;;;;;;;;;;22.29;50.94;96623.14;611040;231;68422;-60
2023/04/24 00:20:57;;;;;;;;;;;;;;;22.30;53.36;96622.05;611506;231;64971;-60
2023/04/24 00:23:24;;;;;;;;;;;;;;;22.29;52.98;96622.32;611262;231;68780;-60
2023/04/24 00:25:52;;;;;;;;;;;;;;;22.28;51.53;96626.09;610800;232;69287;-60
2023/04/24 00:28:19;;;;;;;;;;;;;;;22.28;51.60;96618.85;611273;232;65049;-60
2023/04/24 00:30:47;;;;;;;;;;;;;;;22.28;53.50;96621.53;611285;232;68851;-60
2023/04/24 00:33:14;;;;;;;;;;;;;;;22.27;53.02;96625.30;611530;231;68675;-60
2023/04/24 00:35:42;;;;;;;;;;;;;;;22.27;51.58;96619.95;611725;231;62833;-60
2023/04/24 00:38:11;;;;;;;;;;;;;;;22.27;51.87;96622.63;611775;231;69372;-60
2023/04/24 00:40:38;;;;;;;;;;;;;;;22.26;51.55;96618.37;610761;231;68739;-60
2023/04/24 00:43:06;;;;;;;;;;;;;;;22.25;50.97;96616.75;610897;231;65223;-60
2023/04/24 00:45:33;;;;;;;;;;;;;;;22.24;51.39;96612.50;610890;230;68173;-60
2023/04/24 00:48:01;;;;;;;;;;;;;;;22.25;51.35;96615.97;611733;231;68947;-61
2023/04/24 00:50:29;;;;;;;;;;;;;;;22.23;52.49;96616.23;611023;231;63601;-60
2023/04/24 00:52:56;;;;;;;;;;;;;;;22.24;52.35;96623.20;610995;232;69038;-61
2023/04/24 00:55:25;;;;;;;;;;;;;;;22.24;50.86;96617.06;611155;232;68786;-61
2023/04/24 00:57:54;;;;;;;;;;;;;;;22.23;52.57;96618.92;610843;231;63830;-60
2023/04/24 01:00:22;;;;;;;;;;;;;;;22.22;51.46;96617.34;611380;231;68868;-60
2023/04/24 01:02:51;;;;;;;;;;;;;;;22.22;53.57;96622.69;611070;231;66344;-60
2023/04/24 01:05:19;;;;;;;;;;;;;;;22.23;54.42;96618.13;611671;231;64907;-60
2023/04/24 01:07:48;;;;;;;;;;;;;;;22.21;53.18;96621.11;610926;231;68658;-60
2023/04/24 01:10:17;;;;;;;;;;;;;;;22.22;52.96;96619.22;612156;231;66656;-60
2023/04/24 01:12:46;;;;;;;;;;;;;;;22.20;51.84;96622.17;611508;231;65626;-61
2023/04/24 01:15:14;;;;;;;;;;;;;;;22.20;51.88;96614.14;611279;232;66412;-61
2023/04/24 01:17:42;;;;;;;;;;;;;;;22.20;52.94;96622.17;611171;231;68734;-61
2023/04/24 01:20:10;;;;;;;;;;;;;;;22.19;53.29;96620.59;611326;232;65090;-61
2023/04/24 01:22:38;;;;;;;;;;;;;;;22.19;50.46;96622.48;610843;231;66328;-61
2023/04/24 01:25:06;;;;;;;;;;;;;;;22.18;51.69;96616.34;610846;232;68325;-61
2023/04/24 01:27:33;;;;;;;;;;;;;;;22.19;52.86;96622.48;611522;231;65114;-61
2023/04/24 01:30:01;;;;;;;;;;;;;;;22.19;53.62;96611.77;611262;231;68672;-61
2023/04/24 01:32:30;;;;;;;;;;;;;;;22.17;52.06;96614.69;611313;231;68883;-60
2023/04/24 01:34:58;;;;;;;;;;;;;;;22.16;53.04;96608.55;611022;232;65130;-60
2023/04/24 01:37:26;;;;;;;;;;;;;;;22.17;51.78;96612.02;609244;232;68850;-60
2023/04/24 01:39:54;;;;;;;;;;;;;;;22.17;53.23;96601.31;609369;231;66762;-60
2023/04/24 01:42:22;;;;;;;;;;;;;;;22.16;52.86;96605.08;612328;231;64845;-61
2023/04/24 01:44:50;;;;;;;;;;;;;;;22.15;51.22;96595.45;605353;232;69623;-61
2023/04/24 01:47:17;;;;;;;;;;;;;;;22.14;52.25;96594.66;611082;230;68442;-61
2023/04/24 01:49:46;;;;;;;;;;;;;;;22.14;52.29;96589.30;611143;232;64992;-61
2023/04/24 01:52:14;;;;;;;;;;;;;;;22.14;51.90;96600.00;611131;230;68646;-61
2023/04/24 01:54:41;;;;;;;;;;;;;;;22.14;52.50;96600.00;610920;231;66187;-61
2023/04/24 01:57:09;;;;;;;;;;;;;;;22.14;52.33;96604.56;611751;231;62912;-61
2023/04/24 01:59:36;;;;;;;;;;;;;;;22.13;52.14;96601.10;611310;230;65797;-61
2023/04/24 02:02:04;;;;;;;;;;;;;;;22.12;50.41;96596.81;611043;232;66451;-61
2023/04/24 02:04:31;;;;;;;;;;;;;;;22.14;52.07;96604.56;612028;230;64898;-61
2023/04/24 02:06:59;;;;;;;;;;;;;;;22.13;53.51;96597.63;611283;231;68910;-61
2023/04/24 02:09:26;;;;;;;;;;;;;;;22.11;52.86;96597.91;612384;231;66461;-61
2023/04/24 02:11:54;;;;;;;;;;;;;;;22.10;52.58;96604.36;611107;231;62757;-61
2023/04/24 02:14:21;;;;;;;;;;;;;;;22.11;54.11;96599.80;610949;231;68794;-61
2023/04/24 02:16:49;;;;;;;;;;;;;;;22.10;53.63;96603.56;610955;232;68494;-61
2023/04/24 02:19:16;;;;;;;;;;;;;;;22.10;52.42;96600.89;611347;232;64994;-61
2023/04/24 02:21:44;;;;;;;;;;;;;;;22.10;54.35;96599.00;611171;231;66448;-61
2023/04/24 02:24:11;;;;;;;;;;;;;;;22.09;52.13;96596.60;611208;231;68382;-61
2023/04/24 02:26:39;;;;;;;;;;;;;;;22.09;52.99;96589.36;611288;232;64925;-61
2023/04/24 02:29:06;;;;;;;;;;;;;;;22.08;52.48;96586.99;611343;231;67198;-61
2023/04/24 02:31:34;;;;;;;;;;;;;;;22.08;53.07;96586.99;611806;231;66629;-61
2023/04/24 02:34:01;;;;;;;;;;;;;;;22.08;51.96;96595.81;611339;231;62773;-61
2023/04/24 02:36:30;;;;;;;;;;;;;;;22.08;53.58;96592.34;610840;232;66456;-61
2023/04/24 02:38:57;;;;;;;;;;;;;;;22.08;52.15;96592.34;611061;231;68521;-61
2023/04/24 02:41:31;;;;;;;;;;;;;;;22.07;53.74;96586.20;611199;232;64864;-61
2023/04/24 02:43:54;;;;;;;;;;;;;;;22.06;50.95;96586.48;611031;231;68615;-61
2023/04/24 02:46:22;;;;;;;;;;;;;;;22.05;51.26;96583.02;611033;232;67021;-61
2023/04/24 02:48:49;;;;;;;;;;;;;;;22.05;52.02;96584.90;612090;230;62797;-61
2023/04/24 02:51:17;;;;;;;;;;;;;;;22.05;50.60;96576.88;612631;230;68762;-61
2023/04/24 02:53:44;;;;;;;;;;;;;;;22.05;53.22;96579.55;610842;231;69745;-61
2023/04/24 02:56:14;;;;;;;;;;;;;;;22.05;53.60;96584.90;610863;232;63041;-61
2023/04/24 02:58:42;;;;;;;;;;;;;;;22.05;54.65;96580.33;610882;231;67228;-61
2023/04/24 03:01:09;;;;;;;;;;;;;;;22.04;53.41;96583.28;611627;231;68879;-61
2023/04/24 03:03:38;;;;;;;;;;;;;;;22.03;52.07;96589.73;611412;231;62842;-61
2023/04/24 03:06:05;;;;;;;;;;;;;;;22.03;54.00;96597.76;610816;231;68866;-61
2023/04/24 03:08:33;;;;;;;;;;;;;;;22.03;52.34;96605.78;610702;231;68489;-61
2023/04/24 03:11:00;;;;;;;;;;;;;;;22.02;53.79;96602.32;610830;231;64954;-61
2023/04/24 03:13:28;;;;;;;;;;;;;;;22.02;51.79;96596.17;611242;230;68493;-61
2023/04/24 03:15:55;;;;;;;;;;;;;;;22.02;51.96;96590.83;611272;231;68629;-61
2023/04/24 03:18:23;;;;;;;;;;;;;;;22.01;51.61;96586.54;611361;230;65056;-61
2023/04/24 03:20:51;;;;;;;;;;;;;;;22.01;51.56;96578.52;610868;231;66376;-61
2023/04/24 03:23:18;;;;;;;;;;;;;;;22.00;54.70;96572.38;611553;231;69102;-61
2023/04/24 03:25:48;;;;;;;;;;;;;;;22.00;53.28;96567.02;611637;231;65791;-61
2023/04/24 03:28:16;;;;;;;;;;;;;;;22.00;53.55;96555.53;611530;231;69230;-61
2023/04/24 03:30:45;;;;;;;;;;;;;;;22.00;53.31;96555.53;611678;231;47061;-61
2023/04/24 03:33:12;;;;;;;;;;;;;;;22.00;52.87;96563.55;610904;231;61505;-61
2023/04/24 03:35:42;;;;;;;;;;;;;;;21.98;53.80;96569.18;611009;231;45082;-61
2023/04/24 03:38:11;;;;;;;;;;;;;;;21.98;54.57;96573.74;611416;231;69099;-60
2023/04/24 03:40:43;;;;;;;;;;;;;;;21.97;52.45;96580.98;605084;232;46281;-60
2023/04/24 03:43:28;;;;;;;;;;;;;;;21.98;53.05;96579.09;611268;232;39325;-60
2023/04/24 03:45:57;;;;;;;;;;;;;;;21.97;52.92;96583.66;611119;232;69510;-61
2023/04/24 03:48:25;;;;;;;;;;;;;;;21.97;54.13;96596.23;610830;232;63108;-60
2023/04/24 03:50:53;;;;;;;;;;;;;;;21.96;54.13;96592.74;610795;232;67394;-61
2023/04/24 03:53:21;;;;;;;;;;;;;;;21.95;54.00;96594.63;610974;230;68685;-61
2023/04/24 03:55:49;;;;;;;;;;;;;;;21.95;52.66;96591.16;610806;232;63642;-61
2023/04/24 03:58:17;;;;;;;;;;;;;;;21.95;52.74;96596.52;612276;230;68893;-61
2023/04/24 04:00:47;;;;;;;;;;;;;;;21.94;52.76;96600.28;611302;230;65447;-61
2023/04/24 04:03:19;;;;;;;;;;;;;;;21.93;54.33;96604.84;608416;231;46483;-61
2023/04/24 04:05:47;;;;;;;;;;;;;;;21.93;53.89;96607.52;611084;232;66299;-61
2023/04/24 04:08:15;;;;;;;;;;;;;;;21.92;53.43;96605.12;611401;230;66308;-61
2023/04/24 04:10:42;;;;;;;;;;;;;;;21.91;51.80;96607.00;612397;231;65073;-61
2023/04/24 04:13:10;;;;;;;;;;;;;;;21.93;52.65;96609.37;611646;231;68301;-61
2023/04/24 04:15:37;;;;;;;;;;;;;;;21.91;53.59;96607.00;611502;231;68993;-61
2023/04/24 04:18:06;;;;;;;;;;;;;;;21.92;52.53;96619.28;610927;231;62956;-61
2023/04/24 04:20:33;;;;;;;;;;;;;;;21.91;52.21;96628.41;611571;231;68976;-60
2023/04/24 04:23:01;;;;;;;;;;;;;;;21.91;53.62;96623.05;613444;231;68763;-61
2023/04/24 04:25:30;;;;;;;;;;;;;;;21.90;52.60;96634.81;610769;231;46189;-61
2023/04/24 04:27:59;;;;;;;;;;;;;;;21.91;53.18;96632.96;611267;231;69325;-61
2023/04/24 04:30:29;;;;;;;;;;;;;;;21.91;51.54;96628.41;605098;232;66227;-59
2023/04/24 04:32:58;;;;;;;;;;;;;;;21.92;51.68;96629.19;609431;230;46903;-59
2023/04/24 04:35:25;;;;;;;;;;;;;;;21.91;51.88;96627.61;613921;230;69483;-60
2023/04/24 04:37:53;;;;;;;;;;;;;;;21.92;52.53;96623.84;611476;232;68742;-60
2023/04/24 04:40:23;;;;;;;;;;;;;;;21.91;53.60;96620.38;610464;231;45767;-60
2023/04/24 04:42:52;;;;;;;;;;;;;;;21.91;52.16;96619.59;611240;231;47215;-60
2023/04/24 04:45:20;;;;;;;;;;;;;;;21.92;53.72;96613.94;610885;231;69151;-60
2023/04/24 04:47:54;;;;;;;;;;;;;;;21.93;53.43;96625.42;600366;235;45339;-59
2023/04/24 04:50:22;;;;;;;;;;;;;;;21.91;53.69;96620.38;610066;232;66572;-59
2023/04/24 04:52:53;;;;;;;;;;;;;;;21.92;53.06;96621.16;605404;231;72055;-59
2023/04/24 04:55:23;;;;;;;;;;;;;;;21.91;54.62;96620.38;605467;232;43667;-59
2023/04/24 04:57:57;;;;;;;;;;;;;;;21.91;53.52;96616.91;609401;232;48502;-59
2023/04/24 05:00:25;;;;;;;;;;;;;;;21.91;54.36;96615.03;611999;231;66749;-59
2023/04/24 05:02:53;;;;;;;;;;;;;;;21.91;53.41;96623.05;610972;232;64936;-59
2023/04/24 05:05:20;;;;;;;;;;;;;;;21.92;52.94;96623.84;611935;231;66571;-61
2023/04/24 05:07:49;;;;;;;;;;;;;;;21.91;53.30;96620.38;613225;231;69062;-60
2023/04/24 05:10:16;;;;;;;;;;;;;;;21.92;53.24;96623.84;611503;231;65816;-60
2023/04/24 05:12:45;;;;;;;;;;;;;;;21.92;52.37;96618.49;605611;230;66843;-59
2023/04/24 05:15:12;;;;;;;;;;;;;;;21.93;53.80;96622.75;608649;232;68649;-61
2023/04/24 05:17:40;;;;;;;;;;;;;;;21.93;53.29;96615.55;612913;230;65727;-59
2023/04/24 05:20:09;;;;;;;;;;;;;;;21.92;53.50;96618.49;611961;231;69227;-60
2023/04/24 05:22:37;;;;;;;;;;;;;;;21.92;53.29;96623.84;611319;231;67029;-59
2023/04/24 05:25:05;;;;;;;;;;;;;;;21.90;53.02;96621.44;612411;231;65043;-62
2023/04/24 05:27:35;;;;;;;;;;;;;;;21.93;51.94;96626.25;611204;231;48800;-59
2023/04/24 05:30:04;;;;;;;;;;;;;;;21.92;52.07;96635.33;610950;231;69363;-60
2023/04/24 05:32:32;;;;;;;;;;;;;;;21.93;51.80;96628.92;611003;230;62969;-58
2023/04/24 05:34:59;;;;;;;;;;;;;;;21.93;52.14;96631.59;611319;232;69911;-60
2023/04/24 05:37:27;;;;;;;;;;;;;;;21.93;52.15;96631.59;611242;232;68771;-59
2023/04/24 05:39:55;;;;;;;;;;;;;;;21.93;50.67;96631.59;610936;232;62783;-60
2023/04/24 05:42:23;;;;;;;;;;;;;;;21.94;51.81;96627.83;610749;232;68328;-59
2023/04/24 05:44:51;;;;;;;;;;;;;;;21.93;50.69;96631.59;613323;230;68502;-62
2023/04/24 05:47:18;;;;;;;;;;;;;;;21.95;51.13;96639.32;612753;231;63114;-61
2023/04/24 05:49:46;;;;;;;;;;;;;;;21.93;51.36;96636.95;611395;231;69027;-61
2023/04/24 05:52:13;;;;;;;;;;;;;;;21.95;51.22;96639.32;611272;231;68649;-59
2023/04/24 05:54:41;;;;;;;;;;;;;;;21.93;51.71;96634.27;610662;231;65970;-61
2023/04/24 05:57:09;;;;;;;;;;;;;;;21.93;51.33;96628.10;610769;231;66385;-61
2023/04/24 05:59:39;;;;;;;;;;;;;;;21.92;53.42;96627.31;611491;231;45650;-62
2023/04/24 06:02:07;;;;;;;;;;;;;;;21.91;52.24;96628.41;608947;230;65643;-61
2023/04/24 06:04:35;;;;;;;;;;;;;;;21.91;52.81;96639.10;611362;231;69842;-63
2023/04/24 06:07:02;;;;;;;;;;;;;;;21.92;53.10;96635.33;611912;231;67514;-60
2023/04/24 06:09:30;;;;;;;;;;;;;;;21.91;50.00;96625.73;612152;231;64970;-59
2023/04/24 06:11:59;;;;;;;;;;;;;;;21.91;52.19;96628.41;611473;232;68619;-60
2023/04/24 06:14:29;;;;;;;;;;;;;;;21.92;51.19;96631.87;610413;231;45683;-61
2023/04/24 06:16:58;;;;;;;;;;;;;;;21.92;51.43;96629.98;613087;229;47465;-63
2023/04/24 06:19:29;;;;;;;;;;;;;;;21.91;51.24;96625.73;612464;230;45644;-60
2023/04/24 06:21:56;;;;;;;;;;;;;;;21.92;51.55;96618.49;612007;229;69443;-60
2023/04/24 06:24:25;;;;;;;;;;;;;;;21.92;50.12;96623.84;612444;231;64679;-63
2023/04/24 06:26:54;;;;;;;;;;;;;;;21.91;51.40;96623.05;605546;232;70917;-61
2023/04/24 06:29:21;;;;;;;;;;;;;;;21.90;50.28;96618.77;611397;231;66349;-60
2023/04/24 06:31:49;;;;;;;;;;;;;;;21.92;50.08;96616.61;611380;232;63504;-59
2023/04/24 06:34:16;;;;;;;;;;;;;;;21.91;50.67;96617.70;611827;231;66270;-60
2023/04/24 06:36:44;;;;;;;;;;;;;;;21.93;53.07;96626.25;611732;229;68831;-60
2023/04/24 06:39:12;;;;;;;;;;;;;;;21.93;52.41;96623.57;611911;231;63038;-60
2023/04/24 06:41:39;;;;;;;;;;;;;;;21.93;50.75;96620.89;611832;231;68831;-60
2023/04/24 06:44:09;;;;;;;;;;;;;;;21.93;49.39;96626.25;611095;231;45931;-60
2023/04/24 06:46:36;;;;;;;;;;;;;;;21.93;50.25;96618.22;611131;231;62782;-60
2023/04/24 06:49:04;;;;;;;;;;;;;;;21.94;50.22;96617.13;611268;232;66683;-61
2023/04/24 06:51:32;;;;;;;;;;;;;;;21.95;51.17;96612.56;611472;232;68711;-60
2023/04/24 06:54:00;;;;;;;;;;;;;;;21.95;51.12;96609.89;611205;232;62736;-60
2023/04/24 06:56:29;;;;;;;;;;;;;;;21.95;51.18;96613.36;611683;231;66291;-61
2023/04/24 06:58:56;;;;;;;;;;;;;;;21.95;51.07;96613.36;605992;231;68828;-60
2023/04/24 07:01:24;;;;;;;;;;;;;;;21.96;51.30;96616.82;611577;232;65066;-60
2023/04/24 07:03:53;;;;;;;;;;;;;;;21.96;50.32;96611.47;611913;230;69102;-60
2023/04/24 07:06:22;;;;;;;;;;;;;;;21.97;51.28;96614.97;612822;231;68705;-60
2023/04/24 07:08:50;;;;;;;;;;;;;;;21.96;49.70;96603.44;611271;231;64996;-60
2023/04/24 07:11:17;;;;;;;;;;;;;;;21.97;50.29;96612.30;611594;230;68476;-61
2023/04/24 07:13:44;;;;;;;;;;;;;;;21.97;50.04;96605.05;611906;231;68612;-61
2023/04/24 07:16:12;;;;;;;;;;;;;;;21.97;49.66;96604.27;611342;232;65017;-61
2023/04/24 07:18:39;;;;;;;;;;;;;;;21.98;51.01;96598.61;611211;230;68819;-61
2023/04/24 07:21:07;;;;;;;;;;;;;;;21.99;51.52;96605.57;613327;231;66705;-61
2023/04/24 07:23:34;;;;;;;;;;;;;;;21.99;51.71;96591.38;612532;231;63103;-61
2023/04/24 07:26:02;;;;;;;;;;;;;;;21.99;51.64;96589.52;611169;230;66595;-60
2023/04/24 07:28:32;;;;;;;;;;;;;;;21.99;50.18;96584.17;611116;232;68690;-61
2023/04/24 07:31:00;;;;;;;;;;;;;;;22.05;45.72;96590.25;611154;230;65126;-60
2023/04/24 07:33:27;;;;;;;;;;;;;;;22.06;50.34;96591.83;611117;230;66592;-60
2023/04/24 07:35:55;;;;;;;;;;;;;;;22.05;50.84;96592.92;612757;230;66548;-60
2023/04/24 07:38:22;;;;;;;;;;;;;;;22.06;46.93;96586.48;612613;231;63001;-60
2023/04/24 07:40:50;;;;;;;;;;;;;;;22.05;48.78;96584.90;611070;231;68866;-60
2023/04/24 07:43:17;;;;;;;;;;;;;;;22.12;45.72;96585.31;611424;230;66152;-60
2023/04/24 07:45:45;;;;;;;;;;;;;;;22.09;48.41;96586.69;611541;231;63761;-60
2023/04/24 07:48:16;;;;;;;;;;;;;;;22.09;50.61;96581.34;611670;231;68664;-60
2023/04/24 07:50:43;;;;;;;;;;;;;;;22.09;50.69;96585.90;611081;232;69036;-59
2023/04/24 07:53:11;;;;;;;;;;;;;;;22.08;52.56;96584.31;611212;230;65014;-60
2023/04/24 07:55:39;;;;;;;;;;;;;;;22.08;51.23;96568.27;611338;230;69889;-60
2023/04/24 07:58:06;;;;;;;;;;;;;;;22.08;51.17;96579.75;612493;231;68527;-61
2023/04/24 08:00:34;;;;;;;;;;;;;;;22.08;50.88;96577.08;611857;231;65003;-61
2023/04/24 08:03:01;;;;;;;;;;;;;;;22.09;51.76;96575.19;612558;230;66644;-60
2023/04/24 08:05:31;;;;;;;;;;;;;;;22.10;51.61;96576.80;611390;231;68504;-61
2023/04/24 08:08:00;;;;;;;;;;;;;;;22.09;51.93;96567.95;611194;230;47008;-61
2023/04/24 08:10:28;;;;;;;;;;;;;;;22.11;50.26;96570.36;611110;232;68356;-61
2023/04/24 08:12:55;;;;;;;;;;;;;;;22.11;50.91;96570.36;611096;232;68583;-60
2023/04/24 08:15:26;;;;;;;;;;;;;;;22.19;47.24;96569.73;611705;231;65035;-61
2023/04/24 08:17:56;;;;;;;;;;;;;;;22.18;49.13;96573.52;612128;231;52302;-60
2023/04/24 08:20:23;;;;;;;;;;;;;;;22.16;50.58;96565.73;611573;231;68318;-62
2023/04/24 08:22:51;;;;;;;;;;;;;;;22.15;50.62;96572.17;611674;231;65023;-60
2023/04/24 08:25:19;;;;;;;;;;;;;;;22.16;52.28;96570.29;611263;230;68594;-61
2023/04/24 08:27:46;;;;;;;;;;;;;;;22.15;51.53;96561.47;611231;230;66281;-61
2023/04/24 08:30:14;;;;;;;;;;;;;;;22.16;48.38;96564.94;611619;232;62856;-61
2023/04/24 08:32:41;;;;;;;;;;;;;;;22.18;49.63;96560.12;611271;232;69657;-60
2023/04/24 08:35:12;;;;;;;;;;;;;;;22.19;49.06;96558.24;611606;231;68767;-61
2023/04/24 08:37:42;;;;;;;;;;;;;;;22.20;50.70;96557.15;611708;230;63803;-61
2023/04/24 08:40:11;;;;;;;;;;;;;;;22.19;50.18;96553.68;611629;230;68892;-60
2023/04/24 08:42:43;;;;;;;;;;;;;;;22.20;50.30;96555.27;610182;231;68729;-60
2023/04/24 08:45:12;;;;;;;;;;;;;;;22.20;50.62;96549.91;611654;230;65073;-61
2023/04/24 08:47:40;;;;;;;;;;;;;;;22.21;48.28;96556.05;611436;230;68820;-61
2023/04/24 08:50:09;;;;;;;;;;;;;;;22.22;47.29;96555.77;611368;232;66543;-60
2023/04/24 08:52:37;;;;;;;;;;;;;;;22.22;48.50;96553.09;611204;231;64985;-60
2023/04/24 08:55:04;;;;;;;;;;;;;;;22.24;49.54;96558.97;611129;231;68830;-60
2023/04/24 08:57:33;;;;;;;;;;;;;;;22.23;49.38;96561.92;611475;231;68467;-61
2023/04/24 09:00:01;;;;;;;;;;;;;;;22.22;50.67;96558.45;611430;231;63042;-61
2023/04/24 09:02:29;;;;;;;;;;;;;;;22.23;48.94;96560.03;611264;231;66589;-61
2023/04/24 09:04:57;;;;;;;;;;;;;;;22.24;50.45;96566.20;611545;232;66823;-60
2023/04/24 09:07:26;;;;;;;;;;;;;;;22.25;49.98;96570.46;611798;230;63094;-61
2023/04/24 09:09:53;;;;;;;;;;;;;;;22.25;49.69;96575.81;611773;230;68658;-61
2023/04/24 09:12:21;;;;;;;;;;;;;;;22.27;50.77;96579.01;611225;232;68663;-61
2023/04/24 09:14:49;;;;;;;;;;;;;;;22.27;50.49;96581.69;611545;231;65088;-61
2023/04/24 09:17:16;;;;;;;;;;;;;;;22.28;50.74;96577.91;611230;230;68676;-61
2023/04/24 09:19:43;;;;;;;;;;;;;;;22.28;51.31;96567.20;612144;231;68650;-61
2023/04/24 09:22:11;;;;;;;;;;;;;;;22.28;51.29;96570.67;613676;231;62886;-61
2023/04/24 09:24:39;;;;;;;;;;;;;;;22.28;51.44;96572.55;611612;230;66374;-61
2023/04/24 09:27:07;;;;;;;;;;;;;;;22.28;49.92;96569.88;613004;230;66669;-62
2023/04/24 09:29:35;;;;;;;;;;;;;;;22.27;50.72;96579.80;613414;231;64892;-61
2023/04/24 09:32:04;;;;;;;;;;;;;;;22.28;50.97;96565.31;612903;231;66961;-61
2023/04/24 09:34:31;;;;;;;;;;;;;;;22.28;50.90;96562.64;610804;231;66470;-60
2023/04/24 09:36:58;;;;;;;;;;;;;;;22.30;50.47;96557.80;605590;232;62873;-60
2023/04/24 09:39:26;;;;;;;;;;;;;;;22.31;49.85;96555.91;611404;230;66569;-60
2023/04/24 09:41:56;;;;;;;;;;;;;;;22.32;49.63;96562.87;612329;231;66720;-62
2023/04/24 09:44:25;;;;;;;;;;;;;;;22.33;49.79;96559.10;612052;231;65199;-61
2023/04/24 09:46:54;;;;;;;;;;;;;;;22.32;49.30;96555.64;611202;230;68886;-61
2023/04/24 09:49:25;;;;;;;;;;;;;;;22.34;50.63;96556.15;611195;232;68526;-61
2023/04/24 09:51:54;;;;;;;;;;;;;;;22.34;49.27;96550.80;612333;231;65053;-62
2023/04/24 09:54:22;;;;;;;;;;;;;;;22.35;50.10;96546.23;613317;230;66455;-61
2023/04/24 09:56:51;;;;;;;;;;;;;;;22.34;48.75;96542.77;612150;229;68528;-61
2023/04/24 09:59:20;;;;;;;;;;;;;;;22.36;51.25;96543.25;611624;230;65009;-61
2023/04/24 10:01:49;;;;;;;;;;;;;;;22.35;50.46;96540.87;611855;231;68861;-62
2023/04/24 10:04:21;;;;;;;;;;;;;;;22.36;52.34;96537.89;612120;231;68781;-62
2023/04/24 10:06:49;;;;;;;;;;;;;;;22.37;50.55;96538.68;611884;231;65199;-63
2023/04/24 10:09:18;;;;;;;;;;;;;;;22.38;49.53;96534.94;611492;230;66412;-62
2023/04/24 10:11:47;;;;;;;;;;;;;;;22.38;50.89;96530.37;611154;232;68475;-62
2023/04/24 10:14:16;;;;;;;;;;;;;;;22.38;49.82;96527.69;611171;230;62957;-62
2023/04/24 10:16:46;;;;;;;;;;;;;;;22.38;49.56;96522.34;611044;232;66724;-61
2023/04/24 10:19:14;;;;;;;;;;;;;;;22.39;50.21;96529.27;611134;231;67071;-60
2023/04/24 10:21:46;;;;;;;;;;;;;;;22.37;49.24;96526.11;611110;232;65043;-61
2023/04/24 10:24:14;;;;;;;;;;;;;;;22.37;49.84;96520.76;611844;231;68861;-61
2023/04/24 10:26:42;;;;;;;;;;;;;;;22.38;49.39;96518.87;611011;230;66607;-61
2023/04/24 10:29:12;;;;;;;;;;;;;;;22.38;49.11;96516.98;611818;231;62866;-61
2023/04/24 10:31:40;;;;;;;;;;;;;;;22.37;48.95;96510.05;611594;230;68786;-60
2023/04/24 10:34:09;;;;;;;;;;;;;;;22.38;50.14;96503.59;611073;232;66688;-61
2023/04/24 10:36:38;;;;;;;;;;;;;;;22.39;50.10;96493.68;611270;230;65318;-61
2023/04/24 10:39:06;;;;;;;;;;;;;;;22.39;52.02;96499.03;606043;232;66214;-61
2023/04/24 10:41:36;;;;;;;;;;;;;;;22.39;51.76;96499.03;611554;230;69659;-61
2023/04/24 10:44:10;;;;;;;;;;;;;;;22.38;50.27;96489.42;611642;230;64776;-61
2023/04/24 10:46:38;;;;;;;;;;;;;;;22.39;50.56;96494.47;611187;232;67723;-61
2023/04/24 10:49:09;;;;;;;;;;;;;;;22.40;51.88;96484.58;605327;231;68759;-61
2023/04/24 10:51:48;;;;;;;;;;;;;;;22.41;50.75;96491.52;610831;231;65044;-62
2023/04/24 10:54:28;;;;;;;;;;;;;;;22.42;51.18;96492.30;610520;230;69191;-61
2023/04/24 10:57:14;;;;;;;;;;;;;;;22.42;51.79;96484.27;613336;230;68550;-61
2023/04/24 10:59:42;;;;;;;;;;;;;;;22.41;52.43;96485.37;613005;231;63128;-61
2023/04/24 11:02:09;;;;;;;;;;;;;;;22.42;50.76;96478.91;611690;231;69047;-61
2023/04/24 11:04:37;;;;;;;;;;;;;;;22.43;50.16;96478.63;611149;231;68688;-61
2023/04/24 11:07:04;;;;;;;;;;;;;;;22.44;49.02;96474.07;605798;231;64634;-62
2023/04/24 11:09:32;;;;;;;;;;;;;;;22.45;49.59;96476.44;611788;231;68891;-61
2023/04/24 11:12:14;;;;;;;;;;;;;;;22.46;50.22;96475.37;611566;230;68763;-61
2023/04/24 11:14:59;;;;;;;;;;;;;;;22.46;49.66;96464.66;611065;231;65088;-61
2023/04/24 11:17:34;;;;;;;;;;;;;;;22.48;49.37;96472.38;611723;232;66597;-60
2023/04/24 11:20:05;;;;;;;;;;;;;;;22.50;49.10;96456.83;611307;230;68703;-61
2023/04/24 11:22:34;;;;;;;;;;;;;;;22.51;47.81;96445.05;611706;230;64960;-61
2023/04/24 11:25:02;;;;;;;;;;;;;;;22.52;50.63;96446.63;611943;231;68941;-61
2023/04/24 11:27:35;;;;;;;;;;;;;;;22.53;49.43;96442.84;607683;231;69153;-61
2023/04/24 11:30:04;;;;;;;;;;;;;;;22.53;50.20;96432.92;610609;230;62919;-62
2023/04/24 11:32:33;;;;;;;;;;;;;;;22.55;49.16;96438.00;612353;229;68668;-62
2023/04/24 11:35:01;;;;;;;;;;;;;;;22.56;45.27;96428.86;613291;231;74227;-59
2023/04/24 11:37:30;;;;;;;;;;;;;;;22.61;46.81;96423.42;606185;233;65231;-62
2023/04/24 11:39:58;;;;;;;;;;;;;;;22.64;47.96;96424.72;604323;233;66733;-62
2023/04/24 11:42:26;;;;;;;;;;;;;;;22.64;48.64;96420.15;604246;234;68701;-61
2023/04/24 11:44:55;;;;;;;;;;;;;;;22.66;47.67;96426.01;605671;232;65130;-59
2023/04/24 11:47:29;;;;;;;;;;;;;;;22.67;47.51;96416.91;610793;231;66662;-59
2023/04/24 11:49:59;;;;;;;;;;;;;;;22.70;48.83;96418.98;612561;231;66649;-60
2023/04/24 11:52:27;;;;;;;;;;;;;;;22.70;47.88;96408.27;613254;230;62788;-60
2023/04/24 11:54:54;;;;;;;;;;;;;;;22.72;47.72;96411.42;611933;231;66205;-60
2023/04/24 11:57:33;;;;;;;;;;;;;;;22.73;48.56;96407.67;613268;230;66678;-61
2023/04/24 11:59:56;;;;;;;;;;;;;;;22.75;48.94;96400.14;611997;231;65122;-61
2023/04/24 12:02:25;;;;;;;;;;;;;;;22.81;45.28;96400.84;615584;230;69054;-60
2023/04/24 12:04:53;;;;;;;;;;;;;;;22.82;49.14;96405.88;613546;230;66365;-61
2023/04/24 12:07:20;;;;;;;;;;;;;;;22.85;49.84;96407.17;612993;231;63227;-61
2023/04/24 12:09:49;;;;;;;;;;;;;;;22.88;50.75;96405.79;614097;230;68818;-61
2023/04/24 12:12:17;;;;;;;;;;;;;;;22.91;50.59;96397.94;614521;230;68713;-61
2023/04/24 12:14:46;;;;;;;;;;;;;;;22.94;50.25;96397.34;613403;230;65013;-61
2023/04/24 12:17:14;;;;;;;;;;;;;;;22.98;49.81;96392.23;615752;230;68509;-61
2023/04/24 12:19:48;;;;;;;;;;;;;;;23.00;49.73;96392.73;613799;230;66312;-61
2023/04/24 12:22:16;;;;;;;;;;;;;;;23.03;49.67;96389.45;614356;230;65185;-62
2023/04/24 12:24:56;;;;;;;;;;;;;;;23.05;49.21;96387.25;612977;230;68579;-61
2023/04/24 12:27:24;;;;;;;;;;;;;;;23.09;48.25;96374.06;613193;230;66545;-61
2023/04/24 12:29:53;;;;;;;;;;;;;;;23.12;47.90;96373.45;607283;232;64860;-61
2023/04/24 12:32:21;;;;;;;;;;;;;;;23.13;48.51;96362.42;614537;229;68396;-61
2023/04/24 12:34:51;;;;;;;;;;;;;;;23.16;48.36;96361.84;611937;230;68739;-61
2023/04/24 12:37:18;;;;;;;;;;;;;;;23.18;48.00;96362.31;613231;231;63075;-61
2023/04/24 12:40:06;;;;;;;;;;;;;;;23.20;47.59;96356.67;612211;231;68500;-61
2023/04/24 12:42:35;;;;;;;;;;;;;;;23.21;48.29;96352.88;616111;230;68542;-61
2023/04/24 12:45:06;;;;;;;;;;;;;;;23.23;48.30;96354.17;611113;231;69735;-61
2023/04/24 12:47:35;;;;;;;;;;;;;;;23.23;47.17;96350.70;611904;231;68767;-61
2023/04/24 12:50:02;;;;;;;;;;;;;;;23.25;49.70;96346.62;613586;230;66991;-61
2023/04/24 12:52:30;;;;;;;;;;;;;;;23.28;47.98;96347.12;613338;231;62890;-61
2023/04/24 12:54:59;;;;;;;;;;;;;;;23.29;47.95;96340.66;613634;230;66632;-61